createdAt,value
2023-05-23T00:00:18.571Z,100.00
2023-05-23T00:02:50.050Z,100.00
2023-05-23T00:05:19.267Z,100.00
2023-05-23T00:07:49.298Z,100.00
2023-05-23T00:10:19.126Z,100.00
2023-05-23T00:12:52.793Z,100.00
2023-05-23T00:15:23.309Z,100.00
2023-05-23T00:17:52.182Z,100.00
2023-05-23T00:20:21.642Z,100.00
2023-05-23T00:22:53.173Z,100.00
2023-05-23T00:25:23.835Z,100.00
2023-05-23T00:27:55.374Z,100.00
2023-05-23T00:30:24.492Z,100.00
2023-05-23T00:32:55.580Z,100.00
2023-05-23T00:35:25.196Z,100.00
2023-05-23T00:37:54.859Z,100.00
2023-05-23T00:40:25.630Z,100.00
2023-05-23T00:42:59.553Z,100.00
2023-05-23T00:45:29.695Z,100.00
2023-05-23T00:48:00.404Z,100.00
2023-05-23T00:50:30.871Z,100.00
2023-05-23T00:53:04.190Z,100.00
2023-05-23T00:55:35.097Z,100.00
2023-05-23T00:58:07.054Z,100.00
2023-05-23T01:00:38.977Z,100.00
2023-05-23T01:03:07.893Z,100.00
2023-05-23T01:05:36.803Z,100.00
2023-05-23T01:08:09.940Z,100.00
2023-05-23T01:10:39.559Z,100.00
2023-05-23T01:13:23.570Z,100.00
2023-05-23T01:16:02.749Z,100.00
2023-05-23T01:18:42.068Z,100.00
2023-05-23T01:21:17.641Z,100.00
2023-05-23T01:24:18.661Z,100.00
2023-05-23T01:27:09.299Z,100.00
2023-05-23T01:29:51.229Z,100.00
2023-05-23T01:32:24.518Z,100.00
2023-05-23T01:34:55.729Z,100.00
2023-05-23T01:37:25.270Z,100.00
2023-05-23T01:39:54.336Z,100.00
2023-05-23T01:42:24.178Z,100.00
2023-05-23T01:44:54.725Z,100.00
2023-05-23T01:47:27.098Z,100.00
2023-05-23T01:49:58.632Z,100.00
2023-05-23T01:52:29.739Z,100.00
2023-05-23T01:55:01.016Z,100.00
2023-05-23T01:57:32.444Z,100.00
2023-05-23T02:00:02.646Z,100.00
2023-05-23T02:02:32.826Z,100.00
2023-05-23T02:05:02.501Z,100.00
2023-05-23T02:07:31.632Z,100.00
2023-05-23T02:10:01.788Z,100.00
2023-05-23T02:12:30.817Z,100.00
2023-05-23T02:15:00.056Z,100.00
2023-05-23T02:17:31.910Z,100.00
2023-05-23T02:20:01.211Z,100.00
2023-05-23T02:22:30.285Z,100.00
2023-05-23T02:24:59.674Z,100.00
2023-05-23T02:27:29.062Z,100.00
2023-05-23T02:29:58.076Z,100.00
2023-05-23T02:32:28.373Z,100.00
2023-05-23T02:34:58.480Z,100.00
2023-05-23T02:37:28.628Z,100.00
2023-05-23T02:40:00.150Z,100.00
2023-05-23T02:42:28.785Z,100.00
2023-05-23T02:44:58.148Z,100.00
2023-05-23T02:47:27.284Z,100.00
2023-05-23T02:49:57.615Z,100.00
2023-05-23T02:52:28.516Z,100.00
2023-05-23T02:54:57.068Z,100.00
2023-05-23T02:57:26.702Z,100.00
2023-05-23T02:59:55.546Z,100.00
2023-05-23T03:02:24.730Z,100.00
2023-05-23T03:04:54.659Z,100.00
2023-05-23T03:07:28.485Z,100.00
2023-05-23T03:09:58.040Z,100.00
2023-05-23T03:12:26.735Z,100.00
2023-05-23T03:14:56.125Z,100.00
2023-05-23T03:17:28.315Z,100.00
2023-05-23T03:19:57.198Z,100.00
2023-05-23T03:22:28.104Z,100.00
2023-05-23T03:24:57.280Z,100.00
2023-05-23T03:27:26.302Z,100.00
2023-05-23T03:29:58.154Z,100.00
2023-05-23T03:32:27.063Z,100.00
2023-05-23T03:34:56.530Z,100.00
2023-05-23T03:37:27.069Z,100.00
2023-05-23T03:39:56.536Z,100.00
2023-05-23T03:42:26.517Z,100.00
2023-05-23T03:44:57.580Z,100.00
2023-05-23T03:47:30.182Z,100.00
2023-05-23T03:50:01.587Z,100.00
2023-05-23T03:52:32.064Z,100.00
2023-05-23T03:55:01.289Z,100.00
2023-05-23T03:57:31.497Z,100.00
2023-05-23T04:00:03.561Z,100.00
2023-05-23T04:02:33.071Z,100.00
2023-05-23T04:05:03.266Z,100.00
2023-05-23T04:07:37.642Z,100.00
2023-05-23T04:10:09.475Z,100.00
2023-05-23T04:12:43.746Z,100.00
2023-05-23T04:15:13.438Z,100.00
2023-05-23T04:17:44.184Z,100.00
2023-05-23T04:20:13.655Z,100.00
2023-05-23T04:22:44.575Z,100.00
2023-05-23T04:25:14.673Z,100.00
2023-05-23T04:27:44.043Z,100.00
2023-05-23T04:30:14.320Z,100.00
2023-05-23T04:32:43.161Z,100.00
2023-05-23T04:35:14.329Z,100.00
2023-05-23T04:37:45.733Z,100.00
2023-05-23T04:40:15.327Z,100.00
2023-05-23T04:42:45.043Z,100.00
2023-05-23T04:45:17.967Z,100.00
2023-05-23T04:47:47.040Z,100.00
2023-05-23T04:50:16.809Z,100.00
2023-05-23T04:52:48.954Z,100.00
2023-05-23T04:55:18.493Z,100.00
2023-05-23T04:57:47.335Z,100.00
2023-05-23T05:00:18.170Z,100.00
2023-05-23T05:02:47.430Z,100.00
2023-05-23T05:05:16.324Z,100.00
2023-05-23T05:07:46.930Z,100.00
2023-05-23T05:10:17.324Z,100.00
2023-05-23T05:12:46.982Z,100.00
2023-05-23T05:15:19.749Z,100.00
2023-05-23T05:17:49.967Z,100.00
2023-05-23T05:20:20.055Z,100.00
2023-05-23T05:22:58.459Z,100.00
2023-05-23T05:25:27.621Z,100.00
2023-05-23T05:27:56.413Z,100.00
2023-05-23T05:30:26.106Z,100.00
2023-05-23T05:32:58.798Z,100.00
2023-05-23T05:35:29.699Z,100.00
2023-05-23T05:37:59.998Z,100.00
2023-05-23T05:40:29.005Z,100.00
2023-05-23T05:42:57.851Z,100.00
2023-05-23T05:45:26.752Z,100.00
2023-05-23T05:47:57.320Z,100.00
2023-05-23T05:50:27.167Z,100.00
2023-05-23T05:52:58.911Z,100.00
2023-05-23T05:55:30.369Z,100.00
2023-05-23T05:58:00.827Z,100.00
2023-05-23T06:00:31.609Z,100.00
2023-05-23T06:03:01.770Z,100.00
2023-05-23T06:05:31.827Z,100.00
2023-05-23T06:08:02.251Z,100.00
2023-05-23T06:10:31.052Z,100.00
2023-05-23T06:13:01.871Z,100.00
2023-05-23T06:15:30.680Z,100.00
2023-05-23T06:18:01.363Z,100.00
2023-05-23T06:20:30.226Z,100.00
2023-05-23T06:23:00.679Z,100.00
2023-05-23T06:25:32.816Z,100.00
2023-05-23T06:28:01.603Z,100.00
2023-05-23T06:30:30.820Z,100.00
2023-05-23T06:33:01.035Z,100.00
2023-05-23T06:35:31.156Z,100.00
2023-05-23T06:38:03.387Z,100.00
2023-05-23T06:40:33.857Z,100.00
2023-05-23T06:43:06.398Z,100.00
2023-05-23T06:45:36.101Z,100.00
2023-05-23T06:48:06.989Z,100.00
2023-05-23T06:50:35.992Z,100.00
2023-05-23T06:53:06.659Z,100.00
2023-05-23T06:55:37.824Z,100.00
2023-05-23T06:58:07.612Z,100.00
2023-05-23T07:00:36.129Z,100.00
2023-05-23T07:03:05.321Z,100.00
2023-05-23T07:05:40.884Z,100.00
2023-05-23T07:08:12.091Z,100.00
2023-05-23T07:10:42.146Z,100.00
2023-05-23T07:13:12.015Z,100.00
2023-05-23T07:15:40.925Z,100.00
2023-05-23T07:18:10.195Z,100.00
2023-05-23T07:20:39.691Z,100.00
2023-05-23T07:23:08.737Z,100.00
2023-05-23T07:25:47.025Z,100.00
2023-05-23T07:28:23.225Z,100.00
2023-05-23T07:30:52.852Z,100.00
2023-05-23T07:33:22.531Z,100.00
2023-05-23T07:35:51.613Z,100.00
2023-05-23T07:38:21.116Z,100.00
2023-05-23T07:41:03.079Z,100.00
2023-05-23T07:43:40.360Z,100.00
2023-05-23T07:46:09.813Z,100.00
2023-05-23T07:48:38.973Z,100.00
2023-05-23T07:51:07.856Z,100.00
2023-05-23T07:53:40.399Z,100.00
2023-05-23T07:56:11.224Z,100.00
2023-05-23T07:58:40.702Z,100.00
2023-05-23T08:01:11.225Z,100.00
2023-05-23T08:03:40.818Z,100.00
2023-05-23T08:06:10.205Z,100.00
2023-05-23T08:08:39.709Z,100.00
2023-05-23T08:11:10.465Z,100.00
2023-05-23T08:13:41.191Z,100.00
2023-05-23T08:16:10.513Z,100.00
2023-05-23T08:18:46.576Z,100.00
2023-05-23T08:21:15.963Z,100.00
2023-05-23T08:23:45.628Z,100.00
2023-05-23T08:26:16.920Z,100.00
2023-05-23T08:28:45.899Z,100.00
2023-05-23T08:31:16.687Z,100.00
2023-05-23T08:33:46.134Z,100.00
2023-05-23T08:36:15.233Z,100.00
2023-05-23T08:38:44.814Z,100.00
2023-05-23T08:41:21.536Z,100.00
2023-05-23T08:43:51.034Z,100.00
2023-05-23T08:46:20.128Z,100.00
2023-05-23T08:48:55.239Z,100.00
2023-05-23T08:51:28.740Z,100.00
2023-05-23T08:53:58.759Z,100.00
2023-05-23T08:56:29.609Z,100.00
2023-05-23T08:58:58.997Z,100.00
2023-05-23T09:01:29.871Z,100.00
2023-05-23T09:04:04.624Z,100.00
2023-05-23T09:06:33.965Z,100.00
2023-05-23T09:09:04.774Z,100.00
2023-05-23T09:11:36.459Z,100.00
2023-05-23T09:14:08.091Z,100.00
2023-05-23T09:16:37.429Z,100.00
2023-05-23T09:19:13.607Z,100.00
2023-05-23T09:21:45.495Z,100.00
2023-05-23T09:24:17.969Z,100.00
2023-05-23T09:26:51.074Z,100.00
2023-05-23T09:29:22.949Z,100.00
2023-05-23T09:31:52.024Z,100.00
2023-05-23T09:34:21.210Z,100.00
2023-05-23T09:36:50.464Z,100.00
2023-05-23T09:39:19.200Z,100.00
2023-05-23T09:41:50.933Z,100.00
2023-05-23T09:44:27.575Z,100.00
2023-05-23T09:46:56.617Z,100.00
2023-05-23T09:49:27.973Z,100.00
2023-05-23T09:52:00.974Z,100.00
2023-05-23T09:54:32.751Z,100.00
2023-05-23T09:57:06.302Z,100.00
2023-05-23T09:59:40.700Z,100.00
2023-05-23T10:02:13.967Z,100.00
2023-05-23T10:04:44.834Z,100.00
2023-05-23T10:07:16.592Z,100.00
2023-05-23T10:09:49.008Z,100.00
2023-05-23T10:12:49.191Z,100.00
2023-05-23T10:15:21.025Z,100.00
2023-05-23T10:18:04.854Z,100.00
2023-05-23T10:20:50.256Z,100.00
2023-05-23T10:23:28.311Z,100.00
2023-05-23T10:25:57.819Z,100.00
2023-05-23T10:28:29.533Z,97.43
2023-05-23T10:30:59.336Z,96.65
2023-05-23T10:33:31.921Z,88.71
2023-05-23T10:36:13.792Z,89.93
2023-05-23T10:38:49.503Z,93.94
2023-05-23T10:41:27.613Z,91.61
2023-05-23T10:44:06.577Z,95.93
2023-05-23T10:46:56.648Z,92.81
2023-05-23T10:49:40.253Z,97.22
2023-05-23T10:52:11.436Z,93.98
2023-05-23T10:54:45.498Z,96.59
2023-05-23T10:57:17.965Z,98.11
2023-05-23T10:59:51.191Z,97.02
2023-05-23T11:02:28.793Z,100.00
2023-05-23T11:05:24.993Z,100.00
2023-05-23T11:08:10.980Z,100.00
2023-05-23T11:11:01.409Z,95.07
2023-05-23T11:14:01.278Z,94.77
2023-05-23T11:16:33.842Z,95.18
2023-05-23T11:19:28.809Z,100.00
2023-05-23T11:22:01.767Z,99.11
2023-05-23T11:24:50.688Z,90.32
2023-05-23T11:27:22.152Z,84.96
2023-05-23T11:30:04.958Z,82.29
2023-05-23T11:32:39.668Z,86.71
2023-05-23T11:35:12.883Z,89.49
2023-05-23T11:37:42.915Z,100.00
2023-05-23T11:40:32.181Z,98.11
2023-05-23T11:43:02.334Z,95.14
2023-05-23T11:45:33.327Z,95.21
2023-05-23T11:48:14.128Z,93.31
2023-05-23T11:50:47.740Z,89.21
2023-05-23T11:53:20.996Z,89.38
2023-05-23T11:55:55.443Z,87.67
2023-05-23T11:58:28.791Z,84.32
2023-05-23T12:01:02.855Z,83.97
2023-05-23T12:03:33.131Z,84.26
2023-05-23T12:06:02.404Z,83.05
2023-05-23T12:08:31.198Z,87.71
2023-05-23T12:11:02.124Z,84.53
2023-05-23T12:13:32.233Z,80.75
2023-05-23T12:16:03.143Z,78.29
2023-05-23T12:18:34.724Z,67.63
2023-05-23T12:21:06.212Z,71.35
2023-05-23T12:23:37.576Z,71.45
2023-05-23T12:26:10.124Z,70.86
2023-05-23T12:28:41.217Z,66.08
2023-05-23T12:31:17.208Z,66.77
2023-05-23T12:33:50.620Z,66.63
2023-05-23T12:36:24.663Z,63.10
2023-05-23T12:38:56.184Z,63.26
2023-05-23T12:41:26.212Z,64.04
2023-05-23T12:43:58.662Z,65.55
2023-05-23T12:46:29.484Z,60.16
2023-05-23T12:49:02.628Z,60.00
2023-05-23T12:51:32.376Z,63.93
2023-05-23T12:54:01.622Z,59.72
2023-05-23T12:56:30.620Z,59.45
2023-05-23T12:59:02.366Z,58.82
2023-05-23T13:01:31.497Z,62.62
2023-05-23T13:04:02.300Z,61.31
2023-05-23T13:06:31.783Z,60.94
2023-05-23T13:09:01.249Z,59.56
2023-05-23T13:11:31.631Z,65.51
2023-05-23T13:14:00.589Z,64.19
2023-05-23T13:16:29.837Z,65.97
2023-05-23T13:19:00.193Z,65.56
2023-05-23T13:21:28.983Z,66.61
2023-05-23T13:23:57.944Z,66.17
2023-05-23T13:26:27.720Z,66.57
2023-05-23T13:28:56.509Z,65.03
2023-05-23T13:31:25.499Z,63.45
2023-05-23T13:33:55.080Z,60.32
2023-05-23T13:36:25.632Z,64.57
2023-05-23T13:38:54.375Z,62.38
2023-05-23T13:41:23.367Z,62.90
2023-05-23T13:43:52.223Z,61.51
2023-05-23T13:46:21.139Z,63.68
2023-05-23T13:48:50.176Z,60.32
2023-05-23T13:51:18.913Z,62.84
2023-05-23T13:53:50.277Z,61.17
2023-05-23T13:56:19.011Z,63.60
2023-05-23T13:58:48.097Z,65.44
2023-05-23T14:01:17.524Z,59.47
2023-05-23T14:03:46.513Z,63.80
2023-05-23T14:06:15.691Z,57.19
2023-05-23T14:08:44.347Z,57.13
2023-05-23T14:11:14.590Z,61.99
2023-05-23T14:13:43.348Z,58.54
2023-05-23T14:16:12.838Z,61.83
2023-05-23T14:18:41.940Z,56.57
2023-05-23T14:21:10.749Z,57.37
2023-05-23T14:23:39.846Z,60.41
2023-05-23T14:26:09.989Z,62.26
2023-05-23T14:28:40.510Z,57.61
2023-05-23T14:31:09.502Z,58.72
2023-05-23T14:33:38.842Z,56.99
2023-05-23T14:36:10.008Z,54.76
2023-05-23T14:38:39.854Z,53.42
2023-05-23T14:41:09.738Z,53.64
2023-05-23T14:43:40.151Z,54.55
2023-05-23T14:46:09.280Z,53.81
2023-05-23T14:48:39.874Z,54.36
2023-05-23T14:51:09.154Z,58.78
2023-05-23T14:53:39.164Z,58.53
2023-05-23T14:56:08.541Z,56.24
2023-05-23T14:58:37.602Z,60.17
2023-05-23T15:01:11.251Z,61.02
2023-05-23T15:03:40.613Z,60.67
2023-05-23T15:06:10.249Z,58.13
2023-05-23T15:08:41.842Z,58.71
2023-05-23T15:11:11.108Z,56.38
2023-05-23T15:13:40.396Z,56.53
2023-05-23T15:16:11.003Z,56.63
2023-05-23T15:18:42.980Z,55.06
2023-05-23T15:21:12.592Z,55.12
2023-05-23T15:23:41.731Z,57.49
2023-05-23T15:26:10.814Z,56.70
2023-05-23T15:28:40.169Z,55.90
2023-05-23T15:31:13.042Z,57.07
2023-05-23T15:33:42.064Z,56.01
2023-05-23T15:36:13.430Z,55.05
2023-05-23T15:38:42.762Z,59.19
2023-05-23T15:41:13.110Z,58.98
2023-05-23T15:43:42.216Z,59.24
2023-05-23T15:46:13.191Z,60.88
2023-05-23T15:48:44.600Z,56.02
2023-05-23T15:51:13.712Z,58.85
2023-05-23T15:54:00.176Z,61.75
2023-05-23T15:56:30.011Z,57.54
2023-05-23T15:58:58.778Z,58.87
2023-05-23T16:01:31.017Z,57.97
2023-05-23T16:03:59.784Z,61.54
2023-05-23T16:06:29.842Z,58.35
2023-05-23T16:08:59.902Z,56.45
2023-05-23T16:11:29.007Z,56.47
2023-05-23T16:13:58.466Z,57.99
2023-05-23T16:16:30.508Z,53.83
2023-05-23T16:19:01.235Z,54.40
2023-05-23T16:21:37.453Z,56.78
2023-05-23T16:24:07.679Z,54.35
2023-05-23T16:26:36.795Z,59.31
2023-05-23T16:29:07.760Z,55.49
2023-05-23T16:31:38.306Z,55.60
2023-05-23T16:34:07.714Z,53.99
2023-05-23T16:36:38.783Z,56.75
2023-05-23T16:39:08.295Z,51.91
2023-05-23T16:41:37.776Z,56.35
2023-05-23T16:44:07.840Z,56.56
2023-05-23T16:46:41.943Z,56.39
2023-05-23T16:49:11.902Z,54.10
2023-05-23T16:51:42.017Z,56.53
2023-05-23T16:54:11.162Z,54.28
2023-05-23T16:56:40.466Z,57.43
2023-05-23T16:59:09.475Z,55.93
2023-05-23T17:01:38.500Z,55.37
2023-05-23T17:04:08.998Z,60.66
2023-05-23T17:06:39.970Z,61.30
2023-05-23T17:09:09.215Z,59.82
2023-05-23T17:11:38.214Z,59.80
2023-05-23T17:14:07.751Z,60.62
2023-05-23T17:16:36.856Z,60.25
2023-05-23T17:19:07.624Z,60.22
2023-05-23T17:21:36.776Z,59.27
2023-05-23T17:24:06.347Z,62.84
2023-05-23T17:26:36.993Z,63.59
2023-05-23T17:29:06.252Z,60.03
2023-05-23T17:31:35.006Z,57.75
2023-05-23T17:34:05.117Z,60.25
2023-05-23T17:36:36.256Z,59.35
2023-05-23T17:39:05.398Z,58.67
2023-05-23T17:41:34.187Z,58.86
2023-05-23T17:44:05.417Z,56.91
2023-05-23T17:46:34.293Z,55.56
2023-05-23T17:49:03.829Z,58.31
2023-05-23T17:51:34.867Z,57.09
2023-05-23T17:54:05.285Z,56.76
2023-05-23T17:56:33.954Z,55.34
2023-05-23T17:59:06.013Z,57.78
2023-05-23T18:01:35.804Z,60.70
2023-05-23T18:04:04.586Z,57.69
2023-05-23T18:06:33.486Z,58.40
2023-05-23T18:09:04.026Z,59.88
2023-05-23T18:11:34.638Z,61.41
2023-05-23T18:14:04.164Z,60.95
2023-05-23T18:16:33.401Z,60.38
2023-05-23T18:19:02.434Z,59.74
2023-05-23T18:21:34.884Z,60.38
2023-05-23T18:24:04.544Z,62.03
2023-05-23T18:26:40.597Z,59.38
2023-05-23T18:29:09.677Z,63.34
2023-05-23T18:31:39.125Z,63.57
2023-05-23T18:34:08.676Z,64.65
2023-05-23T18:36:37.986Z,62.23
2023-05-23T18:39:06.963Z,61.50
2023-05-23T18:41:37.325Z,63.78
2023-05-23T18:44:06.432Z,63.13
2023-05-23T18:46:35.257Z,66.01
2023-05-23T18:49:05.035Z,66.28
2023-05-23T18:51:35.879Z,65.84
2023-05-23T18:54:05.961Z,62.09
2023-05-23T18:56:37.441Z,59.99
2023-05-23T18:59:06.454Z,60.49
2023-05-23T19:01:36.643Z,62.96
2023-05-23T19:04:06.119Z,62.19
2023-05-23T19:06:35.332Z,65.55
2023-05-23T19:09:09.504Z,65.64
2023-05-23T19:11:40.483Z,63.77
2023-05-23T19:14:09.598Z,62.79
2023-05-23T19:16:40.093Z,61.00
2023-05-23T19:19:09.609Z,66.13
2023-05-23T19:21:41.705Z,63.45
2023-05-23T19:24:11.598Z,63.33
2023-05-23T19:26:42.639Z,64.65
2023-05-23T19:29:12.982Z,62.63
2023-05-23T19:31:42.414Z,65.34
2023-05-23T19:34:14.112Z,65.67
2023-05-23T19:36:43.830Z,67.42
2023-05-23T19:39:13.567Z,61.91
2023-05-23T19:41:45.613Z,67.10
2023-05-23T19:44:14.820Z,66.32
2023-05-23T19:46:43.777Z,66.71
2023-05-23T19:49:13.830Z,67.54
2023-05-23T19:51:45.230Z,64.93
2023-05-23T19:54:15.627Z,70.78
2023-05-23T19:56:46.907Z,68.19
2023-05-23T19:59:16.105Z,66.56
2023-05-23T20:01:45.447Z,65.54
2023-05-23T20:04:14.383Z,66.33
2023-05-23T20:06:44.843Z,66.65
2023-05-23T20:09:14.198Z,68.32
2023-05-23T20:11:45.368Z,69.91
2023-05-23T20:14:15.711Z,72.05
2023-05-23T20:16:44.968Z,66.56
2023-05-23T20:19:14.002Z,68.24
2023-05-23T20:21:43.889Z,68.65
2023-05-23T20:24:15.591Z,66.85
2023-05-23T20:26:46.843Z,73.06
2023-05-23T20:29:16.062Z,65.73
2023-05-23T20:31:45.173Z,64.37
2023-05-23T20:34:14.117Z,66.63
2023-05-23T20:36:43.031Z,72.00
2023-05-23T20:39:13.070Z,64.96
2023-05-23T20:41:45.839Z,68.93
2023-05-23T20:44:17.828Z,68.35
2023-05-23T20:46:48.109Z,72.97
2023-05-23T20:49:17.849Z,68.83
2023-05-23T20:51:46.923Z,69.48
2023-05-23T20:54:16.218Z,65.54
2023-05-23T20:56:45.318Z,67.57
2023-05-23T20:59:16.557Z,68.95
2023-05-23T21:01:45.629Z,65.33
2023-05-23T21:04:16.753Z,69.72
2023-05-23T21:06:48.374Z,67.79
2023-05-23T21:09:18.079Z,72.72
2023-05-23T21:11:46.849Z,68.11
2023-05-23T21:14:19.624Z,68.89
2023-05-23T21:16:49.348Z,70.00
2023-05-23T21:19:18.062Z,69.53
2023-05-23T21:21:47.459Z,74.68
2023-05-23T21:24:20.410Z,69.72
2023-05-23T21:26:49.566Z,72.29
2023-05-23T21:29:22.187Z,74.23
2023-05-23T21:31:51.758Z,72.66
2023-05-23T21:34:24.161Z,74.14
2023-05-23T21:36:55.581Z,73.64
2023-05-23T21:39:25.268Z,76.45
2023-05-23T21:41:55.238Z,76.83
2023-05-23T21:44:26.173Z,74.08
2023-05-23T21:46:55.248Z,70.36
2023-05-23T21:49:24.277Z,73.57
2023-05-23T21:51:55.356Z,74.25
2023-05-23T21:54:25.208Z,77.21
2023-05-23T21:56:54.060Z,77.45
2023-05-23T21:59:26.765Z,74.99
2023-05-23T22:01:56.734Z,72.73
2023-05-23T22:04:25.896Z,72.14
2023-05-23T22:06:54.594Z,73.63
2023-05-23T22:09:23.499Z,74.20
2023-05-23T22:11:52.367Z,69.30
2023-05-23T22:14:22.746Z,73.93
2023-05-23T22:16:53.509Z,70.95
2023-05-23T22:19:26.538Z,73.62
2023-05-23T22:21:55.572Z,72.23
2023-05-23T22:24:25.566Z,70.24
2023-05-23T22:26:55.069Z,69.33
2023-05-23T22:29:24.380Z,69.17
2023-05-23T22:31:54.675Z,72.73
2023-05-23T22:34:23.827Z,73.07
2023-05-23T22:36:53.400Z,68.54
2023-05-23T22:39:22.580Z,74.01
2023-05-23T22:41:59.533Z,70.30
2023-05-23T22:44:29.073Z,63.71
2023-05-23T22:47:00.364Z,73.41
2023-05-23T22:49:30.390Z,74.73
2023-05-23T22:52:00.150Z,71.97
2023-05-23T22:54:31.974Z,70.05
2023-05-23T22:57:02.785Z,66.17
2023-05-23T22:59:32.934Z,65.58
2023-05-23T23:02:03.651Z,77.40
2023-05-23T23:04:34.306Z,72.47
2023-05-23T23:07:04.335Z,69.84
2023-05-23T23:09:33.274Z,68.69
2023-05-23T23:12:02.188Z,71.85
2023-05-23T23:14:31.147Z,67.84
2023-05-23T23:17:01.878Z,63.56
2023-05-23T23:19:35.518Z,77.10
2023-05-23T23:22:04.731Z,75.93
2023-05-23T23:24:33.586Z,72.49
2023-05-23T23:27:02.664Z,71.48
2023-05-23T23:29:31.644Z,76.54
2023-05-23T23:32:00.925Z,71.40
2023-05-23T23:34:32.950Z,73.87
2023-05-23T23:37:05.057Z,73.41
2023-05-23T23:39:34.046Z,85.17
2023-05-23T23:42:03.195Z,86.72
2023-05-23T23:44:32.340Z,76.55
2023-05-23T23:47:01.765Z,74.45
2023-05-23T23:49:32.238Z,68.67
2023-05-23T23:52:02.719Z,70.48
2023-05-23T23:54:33.987Z,72.87
2023-05-23T23:57:04.946Z,70.04
2023-05-23T23:59:33.912Z,68.64
